Etusivu
METAR-TAF:

METAR-TAF

Lentoasemat :

Pocatello Regional Airport

Pocatello, Idaho, Yhdysvallat

Leveyspiiri: 42-55-13N, Pituuspiiri: 112-34-16W, korkeus merenpinnasta: 1356 m

Tämänhetkinen sää

Tämä raportti tehtiin 30 minuuttia sitten, kello 13.53 UTC
Tuuli 9 kn lounaasta
Lämpötila 19°C
Kosteus 37%
Ilmanpaine 1021 hPa
Näkyvyys: 16.1 km
selkeää

METAR: KPIH 041353Z 22009KT 10SM CLR 19/04 A3014 RMK AO2 SLP151 T01940039

Aika: 08:23 (14:23 UTC)

Sääennuste

Tämä raportti tehtiin 3 tuntia ja 3 minuuttia sitten, kello 11.20 UTC
Ennuste voimassa 04. päivästä klo 12 UTC - 05. päivään klo 12 UTC
Tuuli 7 kn lounaasta
Näkyvyys: 10 km
selkeää
From 04. päivästä klo 1400 UTC
Tuuli 6 kn lännestä/lounaasta
Näkyvyys: 10 km
selkeää
From 05. päivästä klo 0600 UTC
Tuuli 6 kn etelästä
Näkyvyys: 10 km
selkeää

TAF: KPIH 041120Z 0412/0512 23007KT P6SM SKC WS015/02025KT FM041400 25006KT P6SM SKC FM050600 19006KT P6SM SKC WS020/27025KT

Säähavainnot ja -ennusteet yli 4000 lentoasemalta (METAR- ja TAF-raportit).

Käytössä olevat sääasemat on merkitty karttaan keltaisilla ja punaisilla pisteillä.

Aseta hiiri pisteen päälle nähdäksesi sääaseman nimen.

Klikkaa sitten nähdäksesi säähavainnot ja -ennusteet.

Kartan vaihtaminen: klikkaa mustalla rastilla varustettuja vihreitä pisteitä, niin voit zoomata sisään; viivalla varustettua vihreää pistettä, niin voit zoomata ulos tai vihreitä nuolia, niin pääset viereisille kartoille.


METAR-TAF: